Time;durP1;ratioP1;P1;durP2;ratioP2;P2;SDS_P1;SDS_P2;PMS_P1;PMS_P2;Temp;Humidity;BMP_temperature;BMP_pressure;BME280_temperature;BME280_humidity;BME280_pressure;Samples;Min_cycle;Max_cycle;Signal;HPM_P1;HPM_P2
2022/03/29 00:01:39;;;;;;;;;;;;;;;;;;5015159;28;20348;-23
2022/03/29 00:04:10;;;;;;;;;;;;;;;;;;5014864;28;19971;-23
2022/03/29 00:06:36;;;;;;;;;;;;;;;;;;5014725;28;19956;-22
2022/03/29 00:09:05;;;;;;;;;;;;;;;;;;5014985;28;19952;-23
2022/03/29 00:11:31;;;;;;;;;;;;;;;;;;5015009;28;19961;-23
2022/03/29 00:14:03;;;;;;;;;;;;;;;;;;5014957;28;19909;-23
2022/03/29 00:16:35;;;;;;;;;;;;;;;;;;5015019;28;20055;-23
2022/03/29 00:19:01;;;;;;;;;;;;;;;;;;5014931;28;20369;-23
2022/03/29 00:21:30;;;;;;;;;;;;;;;;;;5014940;28;19924;-22
2022/03/29 00:24:00;;;;;;;;;;;;;;;;;;5014814;28;19925;-22
2022/03/29 00:26:26;;;;;;;;;;;;;;;;;;5015174;28;20324;-23
2022/03/29 00:34:40;;;;;;;;;;;;;;;;;;5014969;28;19945;-23
2022/03/29 00:37:13;;;;;;;;;;;;;;;;;;5015219;28;19963;-23
2022/03/29 00:42:35;;;;;;;;;;;;;;;;;;5018648;28;19924;-23
2022/03/29 00:45:03;;;;;;;;;;;;;;;;;;5018537;28;19929;-23
2022/03/29 00:47:37;;;;;;;;;;;;;;;;;;5018467;28;19924;-23
2022/03/29 00:50:04;;;;;;;;;;;;;;;;;;5018477;28;19921;-27
2022/03/29 00:52:48;;;;;;;;;;;;;;;;;;5018281;28;20341;-23
2022/03/29 00:55:18;;;;;;;;;;;;;;;;;;5018620;28;20239;-23
2022/03/29 00:57:46;;;;;;;;;;;;;;;;;;5018320;28;20009;-23
2022/03/29 01:00:12;;;;;;;;;;;;;;;;;;5018283;28;19952;-23
2022/03/29 01:02:41;;;;;;;;;;;;;;;;;;5018222;28;19910;-23
2022/03/29 01:05:07;;;;;;;;;;;;;;;;;;5017965;28;20264;-23
2022/03/29 01:10:38;;;;;;;;;;;;;;;;;;5018493;28;20311;-22
2022/03/29 01:18:46;;;;;;;;;;;;;;;;;;5018275;28;19919;-23
2022/03/29 01:21:12;;;;;;;;;;;;;;;;;;5017946;28;20371;-23
2022/03/29 01:29:14;;;;;;;;;;;;;;;;;;5017747;28;19920;-23
2022/03/29 01:31:40;;;;;;;;;;;;;;;;;;5018228;28;19914;-23
2022/03/29 01:36:58;;;;;;;;;;;;;;;;;;5017644;28;19948;-23
2022/03/29 01:39:24;;;;;;;;;;;;;;;;;;5017569;28;20374;-23
2022/03/29 01:41:51;;;;;;;;;;;;;;;;;;5017984;28;19914;-23
2022/03/29 01:44:17;;;;;;;;;;;;;;;;;;5017435;28;20356;-23
2022/03/29 01:46:44;;;;;;;;;;;;;;;;;;5017333;28;19917;-23
2022/03/29 01:49:10;;;;;;;;;;;;;;;;;;5017388;28;20361;-23
2022/03/29 01:51:37;;;;;;;;;;;;;;;;;;5017695;28;20273;-23
2022/03/29 01:54:07;;;;;;;;;;;;;;;;;;5017233;28;19921;-23
2022/03/29 01:56:34;;;;;;;;;;;;;;;;;;4999985;28;19917;-23
2022/03/29 01:59:00;;;;;;;;;;;;;;;;;;5017124;28;19967;-22
2022/03/29 02:01:29;;;;;;;;;;;;;;;;;;5017724;28;19924;-23
2022/03/29 02:04:00;;;;;;;;;;;;;;;;;;5016981;28;20008;-22
2022/03/29 02:06:28;;;;;;;;;;;;;;;;;;5017061;28;19922;-22
2022/03/29 02:09:00;;;;;;;;;;;;;;;;;;5017044;28;19995;-23
2022/03/29 02:11:26;;;;;;;;;;;;;;;;;;5016949;28;19914;-22
2022/03/29 02:13:52;;;;;;;;;;;;;;;;;;5016885;28;19910;-23
2022/03/29 02:16:22;;;;;;;;;;;;;;;;;;5016878;28;19914;-23
2022/03/29 02:18:51;;;;;;;;;;;;;;;;;;5017313;28;19909;-23
2022/03/29 02:21:21;;;;;;;;;;;;;;;;;;4999471;28;19983;-23
2022/03/29 02:23:53;;;;;;;;;;;;;;;;;;5016666;28;19965;-23
2022/03/29 02:26:19;;;;;;;;;;;;;;;;;;5017216;28;20008;-23
2022/03/29 02:28:45;;;;;;;;;;;;;;;;;;5016529;28;19909;-23
2022/03/29 02:31:13;;;;;;;;;;;;;;;;;;5016591;28;19917;-23
2022/03/29 02:33:39;;;;;;;;;;;;;;;;;;5016985;28;19927;-22
2022/03/29 02:36:06;;;;;;;;;;;;;;;;;;5016513;28;20004;-23
2022/03/29 02:38:35;;;;;;;;;;;;;;;;;;5016489;28;19914;-23
2022/03/29 02:41:01;;;;;;;;;;;;;;;;;;5016651;28;20388;-22
2022/03/29 02:43:28;;;;;;;;;;;;;;;;;;5016284;28;20260;-23
2022/03/29 02:45:58;;;;;;;;;;;;;;;;;;5016330;28;19913;-23
2022/03/29 02:48:24;;;;;;;;;;;;;;;;;;5016314;28;19914;-23
2022/03/29 02:50:51;;;;;;;;;;;;;;;;;;5016333;28;20213;-22
2022/03/29 02:53:18;;;;;;;;;;;;;;;;;;5016376;28;19913;-23
2022/03/29 02:55:45;;;;;;;;;;;;;;;;;;5016682;28;19918;-23
2022/03/29 02:58:12;;;;;;;;;;;;;;;;;;5016152;28;19921;-23
2022/03/29 03:00:40;;;;;;;;;;;;;;;;;;5016387;28;19909;-23
2022/03/29 03:03:06;;;;;;;;;;;;;;;;;;5015972;28;19914;-22
2022/03/29 03:05:32;;;;;;;;;;;;;;;;;;5015753;28;20301;-23
2022/03/29 03:07:59;;;;;;;;;;;;;;;;;;5016502;28;19924;-23
2022/03/29 03:10:26;;;;;;;;;;;;;;;;;;5016951;28;19914;-23
2022/03/29 03:12:53;;;;;;;;;;;;;;;;;;5015795;28;19910;-23
2022/03/29 03:15:23;;;;;;;;;;;;;;;;;;5016346;28;19913;-22
2022/03/29 03:17:50;;;;;;;;;;;;;;;;;;5015798;28;19910;-24
2022/03/29 03:20:17;;;;;;;;;;;;;;;;;;5016234;28;19975;-23
2022/03/29 03:22:44;;;;;;;;;;;;;;;;;;5015592;28;19914;-23
2022/03/29 03:25:10;;;;;;;;;;;;;;;;;;5015588;28;19922;-23
2022/03/29 03:27:40;;;;;;;;;;;;;;;;;;4998319;28;19914;-22
2022/03/29 03:30:20;;;;;;;;;;;;;;;;;;5015511;28;20000;-23
2022/03/29 03:32:48;;;;;;;;;;;;;;;;;;5015357;28;19909;-23
2022/03/29 03:35:16;;;;;;;;;;;;;;;;;;5015308;28;19913;-23
2022/03/29 03:37:43;;;;;;;;;;;;;;;;;;5015895;28;20004;-22
2022/03/29 03:40:09;;;;;;;;;;;;;;;;;;5015401;28;19913;-22
2022/03/29 03:42:38;;;;;;;;;;;;;;;;;;5015662;28;19914;-23
2022/03/29 03:45:05;;;;;;;;;;;;;;;;;;5015220;28;19919;-23
2022/03/29 03:47:31;;;;;;;;;;;;;;;;;;5015241;28;19925;-23
2022/03/29 03:49:59;;;;;;;;;;;;;;;;;;5015106;28;19913;-23
2022/03/29 03:52:29;;;;;;;;;;;;;;;;;;5015084;28;20395;-23
2022/03/29 03:54:56;;;;;;;;;;;;;;;;;;4997756;28;19913;-23
2022/03/29 03:57:26;;;;;;;;;;;;;;;;;;5014930;28;19909;-22
2022/03/29 03:59:55;;;;;;;;;;;;;;;;;;5014844;28;19953;-22
2022/03/29 04:02:26;;;;;;;;;;;;;;;;;;5014663;28;19968;-23
2022/03/29 04:04:53;;;;;;;;;;;;;;;;;;4997186;28;19991;-23
2022/03/29 04:07:21;;;;;;;;;;;;;;;;;;4997448;28;19988;-23
2022/03/29 04:09:47;;;;;;;;;;;;;;;;;;5015424;28;19923;-23
2022/03/29 04:12:14;;;;;;;;;;;;;;;;;;5014478;28;19913;-23
2022/03/29 04:14:41;;;;;;;;;;;;;;;;;;5015156;28;20378;-24
2022/03/29 04:17:09;;;;;;;;;;;;;;;;;;5018395;28;19921;-24
2022/03/29 04:22:26;;;;;;;;;;;;;;;;;;5018442;28;19983;-26
2022/03/29 04:24:53;;;;;;;;;;;;;;;;;;5001002;28;19917;-23
2022/03/29 04:27:22;;;;;;;;;;;;;;;;;;5019159;28;19913;-24
2022/03/29 04:29:48;;;;;;;;;;;;;;;;;;5000850;28;19914;-24
2022/03/29 04:32:15;;;;;;;;;;;;;;;;;;5018723;28;19989;-23
2022/03/29 04:34:44;;;;;;;;;;;;;;;;;;5018460;28;19949;-24
2022/03/29 04:37:10;;;;;;;;;;;;;;;;;;5018272;28;19914;-24
2022/03/29 04:39:38;;;;;;;;;;;;;;;;;;5001147;28;20358;-23
2022/03/29 04:42:05;;;;;;;;;;;;;;;;;;5018444;28;20813;-21
2022/03/29 04:44:31;;;;;;;;;;;;;;;;;;5017908;28;19926;-21
2022/03/29 04:46:58;;;;;;;;;;;;;;;;;;5018485;28;20286;-21
2022/03/29 04:49:27;;;;;;;;;;;;;;;;;;5017981;28;19924;-21
2022/03/29 04:51:53;;;;;;;;;;;;;;;;;;5018293;28;19921;-21
2022/03/29 04:54:19;;;;;;;;;;;;;;;;;;5018217;28;20300;-23
2022/03/29 04:56:45;;;;;;;;;;;;;;;;;;5000554;28;20264;-23
2022/03/29 04:59:11;;;;;;;;;;;;;;;;;;5017692;28;19963;-23
2022/03/29 05:01:40;;;;;;;;;;;;;;;;;;5017853;28;19924;-23
2022/03/29 05:04:08;;;;;;;;;;;;;;;;;;5000288;28;20249;-23
2022/03/29 05:06:35;;;;;;;;;;;;;;;;;;5017601;28;19922;-23
2022/03/29 05:09:03;;;;;;;;;;;;;;;;;;5017555;28;19910;-24
2022/03/29 05:11:31;;;;;;;;;;;;;;;;;;5017447;28;20052;-20
2022/03/29 05:13:57;;;;;;;;;;;;;;;;;;5017996;28;19963;-22
2022/03/29 05:16:24;;;;;;;;;;;;;;;;;;5017519;28;20430;-23
2022/03/29 05:18:51;;;;;;;;;;;;;;;;;;5017501;28;19924;-24
2022/03/29 05:21:17;;;;;;;;;;;;;;;;;;5017528;28;19916;-23
2022/03/29 05:23:43;;;;;;;;;;;;;;;;;;5017354;28;19929;-23
2022/03/29 05:26:09;;;;;;;;;;;;;;;;;;5017372;28;19913;-23
2022/03/29 05:28:37;;;;;;;;;;;;;;;;;;5017519;28;19913;-23
2022/03/29 05:31:03;;;;;;;;;;;;;;;;;;5000091;28;20358;-23
2022/03/29 05:33:29;;;;;;;;;;;;;;;;;;5017301;28;19909;-21
2022/03/29 05:35:56;;;;;;;;;;;;;;;;;;5017137;28;19967;-22
2022/03/29 05:38:22;;;;;;;;;;;;;;;;;;5017043;28;20008;-22
2022/03/29 05:40:48;;;;;;;;;;;;;;;;;;5017208;28;19920;-22
2022/03/29 05:43:15;;;;;;;;;;;;;;;;;;5016811;28;19936;-22
2022/03/29 05:45:41;;;;;;;;;;;;;;;;;;4999392;28;19914;-22
2022/03/29 05:49:08;;;;;;;;;;;;;;;;;;5017150;28;19941;-22
2022/03/29 05:51:02;;;;;;;;;;;;;;;;;;4999624;28;19992;-22
2022/03/29 05:53:29;;;;;;;;;;;;;;;;;;5016826;28;19909;-23
2022/03/29 05:55:56;;;;;;;;;;;;;;;;;;5016403;28;19913;-22
2022/03/29 05:58:22;;;;;;;;;;;;;;;;;;5016227;28;19960;-22
2022/03/29 06:00:48;;;;;;;;;;;;;;;;;;5016394;28;20099;-22
2022/03/29 06:03:14;;;;;;;;;;;;;;;;;;5015747;28;19929;-22
2022/03/29 06:05:42;;;;;;;;;;;;;;;;;;5016024;28;19921;-22
2022/03/29 06:08:08;;;;;;;;;;;;;;;;;;5016071;28;19909;-22
2022/03/29 06:10:34;;;;;;;;;;;;;;;;;;5015931;28;19914;-22
2022/03/29 06:13:00;;;;;;;;;;;;;;;;;;5015471;28;19939;-22
2022/03/29 06:15:27;;;;;;;;;;;;;;;;;;5015429;28;19914;-22
2022/03/29 06:17:53;;;;;;;;;;;;;;;;;;5015491;28;19917;-22
2022/03/29 06:20:19;;;;;;;;;;;;;;;;;;5015781;28;19916;-22
2022/03/29 06:22:46;;;;;;;;;;;;;;;;;;5015242;28;19964;-22
2022/03/29 06:25:12;;;;;;;;;;;;;;;;;;5015507;28;19925;-23
2022/03/29 06:27:38;;;;;;;;;;;;;;;;;;4998000;28;19922;-22
2022/03/29 06:30:04;;;;;;;;;;;;;;;;;;4998017;28;19960;-22
2022/03/29 06:32:30;;;;;;;;;;;;;;;;;;5015442;28;19913;-22
2022/03/29 06:34:56;;;;;;;;;;;;;;;;;;5015446;28;19914;-23
2022/03/29 06:37:23;;;;;;;;;;;;;;;;;;5014968;28;19913;-22
2022/03/29 06:39:49;;;;;;;;;;;;;;;;;;4998285;28;19909;-23
2022/03/29 06:42:18;;;;;;;;;;;;;;;;;;4998213;28;19976;-23
2022/03/29 06:44:44;;;;;;;;;;;;;;;;;;5015857;28;20022;-22
2022/03/29 06:47:11;;;;;;;;;;;;;;;;;;4998464;28;19924;-22
2022/03/29 06:49:37;;;;;;;;;;;;;;;;;;5015636;28;19922;-23
2022/03/29 06:52:03;;;;;;;;;;;;;;;;;;5015674;28;20010;-23
2022/03/29 06:54:30;;;;;;;;;;;;;;;;;;5015335;28;19914;-23
2022/03/29 06:56:57;;;;;;;;;;;;;;;;;;5015718;28;20268;-23
2022/03/29 06:59:23;;;;;;;;;;;;;;;;;;4998054;28;19917;-22
2022/03/29 07:01:49;;;;;;;;;;;;;;;;;;5015976;28;19913;-22
2022/03/29 07:04:18;;;;;;;;;;;;;;;;;;5015365;28;20329;-23
2022/03/29 07:06:44;;;;;;;;;;;;;;;;;;5015149;28;19926;-22
2022/03/29 07:11:55;;;;;;;;;;;;;;;;;;5015382;28;19924;-22
2022/03/29 07:14:21;;;;;;;;;;;;;;;;;;5015109;28;19914;-23
2022/03/29 07:16:48;;;;;;;;;;;;;;;;;;5015846;28;20224;-24
2022/03/29 07:19:14;;;;;;;;;;;;;;;;;;5015461;28;19925;-23
2022/03/29 07:21:42;;;;;;;;;;;;;;;;;;5015239;28;19913;-23
2022/03/29 07:24:08;;;;;;;;;;;;;;;;;;5015025;28;20016;-22
2022/03/29 07:26:35;;;;;;;;;;;;;;;;;;5015364;28;19913;-22
2022/03/29 07:29:01;;;;;;;;;;;;;;;;;;5014555;28;20297;-22
2022/03/29 07:31:28;;;;;;;;;;;;;;;;;;5014881;28;20348;-23
2022/03/29 07:33:54;;;;;;;;;;;;;;;;;;5015496;28;19914;-22
2022/03/29 07:36:20;;;;;;;;;;;;;;;;;;5015058;28;19919;-22
2022/03/29 07:38:49;;;;;;;;;;;;;;;;;;4996705;28;20219;-23
2022/03/29 07:41:15;;;;;;;;;;;;;;;;;;5014878;28;20258;-22
2022/03/29 07:43:42;;;;;;;;;;;;;;;;;;5014608;28;19980;-22
2022/03/29 07:46:22;;;;;;;;;;;;;;;;;;5014704;28;19913;-22
2022/03/29 07:48:52;;;;;;;;;;;;;;;;;;4997310;28;20312;-22
2022/03/29 07:51:18;;;;;;;;;;;;;;;;;;5015485;28;19928;-23
2022/03/29 07:53:47;;;;;;;;;;;;;;;;;;4997242;28;20004;-22
2022/03/29 07:56:13;;;;;;;;;;;;;;;;;;5015151;28;19913;-23
2022/03/29 08:07:12;;;;;;;;;;;;;;;;;;5411646;23;20029;-20
2022/03/29 08:09:38;;;;;;;;;;;;;;;;;;5013312;28;19933;-19
2022/03/29 08:12:04;;;;;;;;;;;;;;;;;;5014769;28;19920;-19
2022/03/29 08:14:32;;;;;;;;;;;;;;;;;;4997624;28;19979;-19
2022/03/29 08:17:07;;;;;;;;;;;;;;;;;;5014667;28;20405;-18
2022/03/29 08:19:34;;;;;;;;;;;;;;;;;;5014674;28;19968;-19
2022/03/29 08:22:00;;;;;;;;;;;;;;;;;;5014699;28;20263;-20
2022/03/29 08:24:27;;;;;;;;;;;;;;;;;;5014540;28;20058;-20
2022/03/29 08:26:53;;;;;;;;;;;;;;;;;;5014671;28;19924;-20
2022/03/29 08:29:21;;;;;;;;;;;;;;;;;;5014521;28;19910;-19
2022/03/29 08:31:52;;;;;;;;;;;;;;;;;;5014315;28;19975;-20
2022/03/29 08:34:18;;;;;;;;;;;;;;;;;;5014589;28;19983;-20
2022/03/29 08:36:49;;;;;;;;;;;;;;;;;;5014531;28;20343;-20
2022/03/29 08:39:15;;;;;;;;;;;;;;;;;;5014268;28;20340;-19
2022/03/29 08:41:42;;;;;;;;;;;;;;;;;;5014461;28;19939;-19
2022/03/29 08:44:11;;;;;;;;;;;;;;;;;;5013932;28;19944;-20
2022/03/29 08:46:38;;;;;;;;;;;;;;;;;;5014040;28;19920;-20
2022/03/29 08:49:04;;;;;;;;;;;;;;;;;;5013717;28;19918;-20
2022/03/29 08:51:31;;;;;;;;;;;;;;;;;;5014153;28;20261;-20
2022/03/29 08:53:57;;;;;;;;;;;;;;;;;;4996386;28;19909;-19
2022/03/29 08:56:24;;;;;;;;;;;;;;;;;;4996400;28;19917;-19
2022/03/29 08:58:51;;;;;;;;;;;;;;;;;;4997048;28;19918;-21
2022/03/29 09:01:21;;;;;;;;;;;;;;;;;;5015202;28;19921;-20
2022/03/29 09:03:47;;;;;;;;;;;;;;;;;;5017292;28;19944;-19
2022/03/29 09:06:15;;;;;;;;;;;;;;;;;;5000052;28;19913;-21
2022/03/29 09:08:42;;;;;;;;;;;;;;;;;;5017078;28;19928;-22
2022/03/29 09:11:08;;;;;;;;;;;;;;;;;;4999850;28;20383;-20
2022/03/29 09:13:34;;;;;;;;;;;;;;;;;;5017136;28;19959;-20
2022/03/29 09:16:01;;;;;;;;;;;;;;;;;;5017178;28;20004;-19
2022/03/29 09:18:28;;;;;;;;;;;;;;;;;;5017032;28;19913;-20
2022/03/29 09:20:55;;;;;;;;;;;;;;;;;;4999957;28;20063;-20
2022/03/29 09:23:21;;;;;;;;;;;;;;;;;;4999962;28;19914;-20
2022/03/29 09:25:50;;;;;;;;;;;;;;;;;;5017828;28;20237;-21
2022/03/29 09:28:21;;;;;;;;;;;;;;;;;;5000150;28;19920;-20
2022/03/29 09:30:49;;;;;;;;;;;;;;;;;;5018026;28;19976;-20
2022/03/29 09:33:16;;;;;;;;;;;;;;;;;;5017311;28;20359;-20
2022/03/29 09:35:43;;;;;;;;;;;;;;;;;;5017793;28;19924;-19
2022/03/29 09:38:11;;;;;;;;;;;;;;;;;;4999904;28;19921;-19
2022/03/29 09:40:38;;;;;;;;;;;;;;;;;;4999894;28;19913;-20
2022/03/29 09:43:05;;;;;;;;;;;;;;;;;;5017690;28;19941;-20
2022/03/29 09:45:32;;;;;;;;;;;;;;;;;;4999877;28;19948;-20
2022/03/29 09:47:59;;;;;;;;;;;;;;;;;;4999762;28;19921;-20
2022/03/29 09:50:25;;;;;;;;;;;;;;;;;;5017097;28;19914;-19
2022/03/29 09:52:54;;;;;;;;;;;;;;;;;;5017034;28;19921;-19
2022/03/29 09:55:23;;;;;;;;;;;;;;;;;;4999438;28;19914;-19
2022/03/29 09:57:50;;;;;;;;;;;;;;;;;;5016613;28;19910;-19
2022/03/29 10:00:17;;;;;;;;;;;;;;;;;;5017387;28;19914;-19
2022/03/29 10:02:47;;;;;;;;;;;;;;;;;;5016837;28;19964;-18
2022/03/29 10:05:13;;;;;;;;;;;;;;;;;;5016718;28;19922;-19
2022/03/29 10:07:40;;;;;;;;;;;;;;;;;;5016846;28;20268;-17
2022/03/29 10:10:07;;;;;;;;;;;;;;;;;;5016939;28;20332;-19
2022/03/29 10:12:33;;;;;;;;;;;;;;;;;;5015519;28;20267;-20
2022/03/29 10:15:00;;;;;;;;;;;;;;;;;;5017192;28;19937;-19
2022/03/29 10:17:27;;;;;;;;;;;;;;;;;;5016732;28;19920;-19
2022/03/29 10:19:54;;;;;;;;;;;;;;;;;;5017127;28;19920;-18
2022/03/29 10:22:21;;;;;;;;;;;;;;;;;;5016449;28;19925;-19
2022/03/29 10:24:47;;;;;;;;;;;;;;;;;;5016637;28;19979;-18
2022/03/29 10:27:13;;;;;;;;;;;;;;;;;;4998871;28;19921;-19
2022/03/29 10:29:43;;;;;;;;;;;;;;;;;;5018199;28;20260;-19
2022/03/29 10:32:10;;;;;;;;;;;;;;;;;;5018629;28;20007;-19
2022/03/29 10:34:48;;;;;;;;;;;;;;;;;;5016547;28;19920;-19
2022/03/29 10:37:14;;;;;;;;;;;;;;;;;;4999066;28;20410;-20
2022/03/29 10:39:44;;;;;;;;;;;;;;;;;;5016702;28;19937;-18
2022/03/29 10:50:38;;;;;;;;;;;;;;;;;;5016174;28;19924;-17
2022/03/29 10:53:05;;;;;;;;;;;;;;;;;;5016424;28;19914;-19
2022/03/29 11:01:15;;;;;;;;;;;;;;;;;;5015601;28;19925;-20
2022/03/29 11:09:32;;;;;;;;;;;;;;;;;;4989051;28;19918;-19
2022/03/29 11:12:07;;;;;;;;;;;;;;;;;;4976602;28;19918;-20
2022/03/29 11:17:28;;;;;;;;;;;;;;;;;;4976087;28;19972;-22
2022/03/29 11:22:45;;;;;;;;;;;;;;;;;;5399147;23;19965;-22
2022/03/29 11:25:12;;;;;;;;;;;;;;;;;;4995505;28;20009;-22
2022/03/29 11:27:39;;;;;;;;;;;;;;;;;;4995721;28;20005;-22
2022/03/29 11:30:05;;;;;;;;;;;;;;;;;;4995437;28;19999;-22
2022/03/29 11:32:31;;;;;;;;;;;;;;;;;;4995230;28;20367;-22
2022/03/29 11:34:57;;;;;;;;;;;;;;;;;;4995583;28;20359;-22
2022/03/29 11:37:23;;;;;;;;;;;;;;;;;;4995663;28;20234;-22
2022/03/29 11:39:49;;;;;;;;;;;;;;;;;;4995401;28;20387;-22
2022/03/29 11:42:15;;;;;;;;;;;;;;;;;;4995817;28;20005;-22
2022/03/29 11:44:42;;;;;;;;;;;;;;;;;;4995429;28;20264;-22
2022/03/29 11:47:08;;;;;;;;;;;;;;;;;;4995190;28;19914;-21
2022/03/29 11:49:34;;;;;;;;;;;;;;;;;;4995464;28;19924;-21
2022/03/29 11:52:01;;;;;;;;;;;;;;;;;;4995420;28;19910;-21
2022/03/29 11:54:27;;;;;;;;;;;;;;;;;;4995189;28;20225;-21
2022/03/29 11:56:53;;;;;;;;;;;;;;;;;;4994827;28;20315;-21
2022/03/29 11:59:19;;;;;;;;;;;;;;;;;;4994793;28;19917;-21
2022/03/29 12:01:48;;;;;;;;;;;;;;;;;;4995116;28;19914;-20
2022/03/29 12:04:15;;;;;;;;;;;;;;;;;;4995035;28;20052;-19
2022/03/29 12:06:41;;;;;;;;;;;;;;;;;;4994995;28;20284;-20
2022/03/29 12:09:10;;;;;;;;;;;;;;;;;;4994978;28;20011;-19
2022/03/29 12:11:37;;;;;;;;;;;;;;;;;;4994922;28;20012;-22
2022/03/29 12:14:03;;;;;;;;;;;;;;;;;;4995264;28;19947;-21
2022/03/29 12:16:29;;;;;;;;;;;;;;;;;;4994937;28;19941;-19
2022/03/29 12:18:55;;;;;;;;;;;;;;;;;;4994938;28;20324;-19
2022/03/29 12:21:21;;;;;;;;;;;;;;;;;;4994702;28;19921;-20
2022/03/29 12:23:47;;;;;;;;;;;;;;;;;;4994324;28;19934;-20
2022/03/29 12:26:13;;;;;;;;;;;;;;;;;;4995365;28;19982;-20
2022/03/29 12:28:39;;;;;;;;;;;;;;;;;;4994869;28;19914;-20
2022/03/29 12:31:05;;;;;;;;;;;;;;;;;;4994904;28;20303;-19
2022/03/29 12:33:31;;;;;;;;;;;;;;;;;;4994811;28;19921;-19
2022/03/29 12:35:57;;;;;;;;;;;;;;;;;;4995529;28;19968;-20
2022/03/29 12:38:23;;;;;;;;;;;;;;;;;;4998870;28;19918;-19
2022/03/29 12:40:50;;;;;;;;;;;;;;;;;;4998750;28;20232;-22
2022/03/29 12:43:17;;;;;;;;;;;;;;;;;;4998517;28;19968;-21
2022/03/29 12:45:43;;;;;;;;;;;;;;;;;;4998481;28;20016;-20
2022/03/29 12:48:09;;;;;;;;;;;;;;;;;;4998512;28;19913;-21
2022/03/29 12:50:36;;;;;;;;;;;;;;;;;;4998400;28;19914;-20
2022/03/29 12:53:03;;;;;;;;;;;;;;;;;;4998521;28;20379;-21
2022/03/29 12:55:31;;;;;;;;;;;;;;;;;;4998696;28;19922;-20
2022/03/29 12:57:57;;;;;;;;;;;;;;;;;;4998223;28;19914;-21
2022/03/29 13:00:23;;;;;;;;;;;;;;;;;;4998199;28;19952;-21
2022/03/29 13:02:53;;;;;;;;;;;;;;;;;;4998647;28;19914;-21
2022/03/29 13:05:22;;;;;;;;;;;;;;;;;;4998250;28;19918;-20
2022/03/29 13:07:48;;;;;;;;;;;;;;;;;;4998642;28;19945;-21
2022/03/29 13:10:15;;;;;;;;;;;;;;;;;;4998116;28;19988;-21
2022/03/29 13:12:44;;;;;;;;;;;;;;;;;;4998083;28;19952;-20
2022/03/29 13:15:10;;;;;;;;;;;;;;;;;;4997912;28;19975;-24
2022/03/29 13:17:36;;;;;;;;;;;;;;;;;;4998325;28;19914;-21
2022/03/29 13:20:03;;;;;;;;;;;;;;;;;;4998014;28;19936;-21
2022/03/29 13:22:30;;;;;;;;;;;;;;;;;;4998247;28;19917;-20
2022/03/29 13:24:59;;;;;;;;;;;;;;;;;;4998097;28;19922;-20
2022/03/29 13:27:25;;;;;;;;;;;;;;;;;;4997899;28;20264;-21
2022/03/29 13:29:52;;;;;;;;;;;;;;;;;;4997822;28;20311;-21
2022/03/29 13:32:18;;;;;;;;;;;;;;;;;;4997915;28;20261;-21
2022/03/29 13:34:44;;;;;;;;;;;;;;;;;;4997700;28;19917;-22
2022/03/29 13:37:10;;;;;;;;;;;;;;;;;;4997578;28;19938;-21
2022/03/29 13:39:36;;;;;;;;;;;;;;;;;;4997291;28;19996;-22
2022/03/29 13:42:03;;;;;;;;;;;;;;;;;;4998059;28;19910;-19
2022/03/29 13:44:29;;;;;;;;;;;;;;;;;;4997548;28;19914;-22
2022/03/29 13:46:57;;;;;;;;;;;;;;;;;;4997314;28;19914;-21
2022/03/29 13:49:25;;;;;;;;;;;;;;;;;;4997897;28;20395;-20
2022/03/29 13:51:51;;;;;;;;;;;;;;;;;;4980102;28;19914;-20
2022/03/29 13:54:18;;;;;;;;;;;;;;;;;;4997896;28;19997;-21
2022/03/29 13:56:45;;;;;;;;;;;;;;;;;;4997180;28;19940;-21
2022/03/29 13:59:11;;;;;;;;;;;;;;;;;;4979856;28;20320;-20
2022/03/29 14:01:38;;;;;;;;;;;;;;;;;;4997170;28;19914;-21
2022/03/29 14:04:07;;;;;;;;;;;;;;;;;;4997542;28;20249;-23
2022/03/29 14:06:33;;;;;;;;;;;;;;;;;;4997032;28;19953;-20
2022/03/29 14:09:01;;;;;;;;;;;;;;;;;;4997566;28;19910;-21
2022/03/29 14:11:27;;;;;;;;;;;;;;;;;;4996875;28;19926;-20
2022/03/29 14:13:53;;;;;;;;;;;;;;;;;;4979665;28;19914;-20
2022/03/29 14:16:21;;;;;;;;;;;;;;;;;;4979782;28;19913;-21
2022/03/29 14:18:47;;;;;;;;;;;;;;;;;;4996953;28;19952;-21
2022/03/29 14:21:13;;;;;;;;;;;;;;;;;;4979665;28;19914;-22
2022/03/29 14:23:39;;;;;;;;;;;;;;;;;;4996506;28;20349;-20
2022/03/29 14:26:06;;;;;;;;;;;;;;;;;;4997094;28;19914;-21
2022/03/29 14:28:33;;;;;;;;;;;;;;;;;;4996891;28;19925;-21
2022/03/29 14:31:01;;;;;;;;;;;;;;;;;;4997188;28;19913;-21
2022/03/29 14:33:27;;;;;;;;;;;;;;;;;;4996557;28;20368;-23
2022/03/29 14:35:54;;;;;;;;;;;;;;;;;;4996896;28;20008;-21
2022/03/29 14:38:20;;;;;;;;;;;;;;;;;;4996620;28;19922;-21
2022/03/29 14:40:47;;;;;;;;;;;;;;;;;;4979249;28;19928;-20
2022/03/29 14:43:14;;;;;;;;;;;;;;;;;;4996675;28;20028;-20
2022/03/29 14:45:40;;;;;;;;;;;;;;;;;;4996301;28;20288;-21
2022/03/29 14:48:07;;;;;;;;;;;;;;;;;;4996395;28;20403;-24
2022/03/29 14:50:33;;;;;;;;;;;;;;;;;;4996595;28;20008;-21
2022/03/29 14:53:00;;;;;;;;;;;;;;;;;;4996055;28;19910;-23
2022/03/29 14:55:28;;;;;;;;;;;;;;;;;;4995850;28;19917;-22
2022/03/29 14:57:55;;;;;;;;;;;;;;;;;;4995785;28;19971;-25
2022/03/29 15:00:21;;;;;;;;;;;;;;;;;;4995332;28;20005;-22
2022/03/29 15:02:47;;;;;;;;;;;;;;;;;;4996051;28;19914;-24
2022/03/29 15:05:13;;;;;;;;;;;;;;;;;;4995951;28;19928;-23
2022/03/29 15:07:39;;;;;;;;;;;;;;;;;;4996575;28;19910;-23
2022/03/29 15:10:06;;;;;;;;;;;;;;;;;;4995974;28;19920;-22
2022/03/29 15:12:32;;;;;;;;;;;;;;;;;;4995478;28;19956;-24
2022/03/29 15:14:58;;;;;;;;;;;;;;;;;;4995767;28;19909;-22
2022/03/29 15:17:25;;;;;;;;;;;;;;;;;;4995356;28;19913;-22
2022/03/29 15:19:51;;;;;;;;;;;;;;;;;;4995184;28;19941;-22
2022/03/29 15:22:17;;;;;;;;;;;;;;;;;;4995208;28;19917;-22
2022/03/29 15:24:45;;;;;;;;;;;;;;;;;;4977769;28;19932;-22
2022/03/29 15:27:11;;;;;;;;;;;;;;;;;;4995074;28;20371;-23
2022/03/29 15:29:37;;;;;;;;;;;;;;;;;;4995408;28;19917;-22
2022/03/29 15:32:03;;;;;;;;;;;;;;;;;;4995154;28;19914;-26
2022/03/29 15:34:35;;;;;;;;;;;;;;;;;;4995432;28;20274;-24
2022/03/29 15:37:02;;;;;;;;;;;;;;;;;;4995591;28;19910;-30
2022/03/29 15:39:28;;;;;;;;;;;;;;;;;;4978919;28;20253;-22
2022/03/29 15:41:54;;;;;;;;;;;;;;;;;;4995677;28;19913;-23
2022/03/29 15:44:20;;;;;;;;;;;;;;;;;;4995462;28;20080;-22
2022/03/29 15:46:47;;;;;;;;;;;;;;;;;;4995772;28;19918;-22
2022/03/29 15:49:13;;;;;;;;;;;;;;;;;;4995625;28;19976;-24
2022/03/29 15:51:39;;;;;;;;;;;;;;;;;;4995664;28;20325;-22
2022/03/29 15:54:05;;;;;;;;;;;;;;;;;;4995233;28;19968;-22
2022/03/29 15:56:31;;;;;;;;;;;;;;;;;;4995403;28;19914;-22
2022/03/29 15:58:57;;;;;;;;;;;;;;;;;;4995412;28;20395;-22
2022/03/29 16:01:23;;;;;;;;;;;;;;;;;;4995314;28;20298;-22
2022/03/29 16:03:49;;;;;;;;;;;;;;;;;;4995540;28;19949;-23
2022/03/29 16:06:15;;;;;;;;;;;;;;;;;;4995286;28;19914;-22
2022/03/29 16:08:42;;;;;;;;;;;;;;;;;;4995656;28;19910;-24
2022/03/29 16:11:08;;;;;;;;;;;;;;;;;;4995169;28;19914;-24
2022/03/29 16:13:34;;;;;;;;;;;;;;;;;;4995069;28;19997;-22
2022/03/29 16:16:01;;;;;;;;;;;;;;;;;;4995696;28;19914;-25
2022/03/29 16:18:27;;;;;;;;;;;;;;;;;;4995572;28;19913;-25
2022/03/29 16:20:53;;;;;;;;;;;;;;;;;;4994765;28;19914;-23
2022/03/29 16:23:19;;;;;;;;;;;;;;;;;;4994422;28;20268;-20
2022/03/29 16:25:45;;;;;;;;;;;;;;;;;;4994799;28;19925;-23
2022/03/29 16:28:12;;;;;;;;;;;;;;;;;;4994960;28;19983;-20
2022/03/29 16:30:38;;;;;;;;;;;;;;;;;;4994805;28;19924;-23
2022/03/29 16:33:04;;;;;;;;;;;;;;;;;;4994659;28;19914;-21
2022/03/29 16:35:30;;;;;;;;;;;;;;;;;;4977652;28;19949;-23
2022/03/29 16:37:56;;;;;;;;;;;;;;;;;;4977586;28;19918;-24
2022/03/29 16:40:23;;;;;;;;;;;;;;;;;;4977641;28;19972;-29
2022/03/29 16:42:49;;;;;;;;;;;;;;;;;;4994727;28;19910;-25
2022/03/29 16:45:15;;;;;;;;;;;;;;;;;;4994424;28;20233;-23
2022/03/29 16:47:41;;;;;;;;;;;;;;;;;;4994947;28;19921;-23
2022/03/29 16:50:07;;;;;;;;;;;;;;;;;;4994513;28;19989;-23
2022/03/29 16:52:33;;;;;;;;;;;;;;;;;;4994447;28;19914;-22
2022/03/29 16:54:59;;;;;;;;;;;;;;;;;;4994992;28;20222;-20
2022/03/29 16:57:26;;;;;;;;;;;;;;;;;;4994722;28;19910;-23
2022/03/29 16:59:52;;;;;;;;;;;;;;;;;;4994474;28;19918;-23
2022/03/29 17:02:18;;;;;;;;;;;;;;;;;;4977179;28;19909;-26
2022/03/29 17:04:44;;;;;;;;;;;;;;;;;;4994662;28;19932;-22
2022/03/29 17:07:10;;;;;;;;;;;;;;;;;;4994331;28;19982;-22
2022/03/29 17:09:37;;;;;;;;;;;;;;;;;;4976734;28;20013;-22
2022/03/29 17:12:03;;;;;;;;;;;;;;;;;;4994234;28;19914;-22
2022/03/29 17:14:29;;;;;;;;;;;;;;;;;;4976987;28;19984;-23
2022/03/29 17:16:56;;;;;;;;;;;;;;;;;;4994399;28;19949;-23
2022/03/29 17:19:22;;;;;;;;;;;;;;;;;;4994225;28;20226;-23
2022/03/29 17:21:48;;;;;;;;;;;;;;;;;;4994757;28;20364;-23
2022/03/29 17:24:18;;;;;;;;;;;;;;;;;;4997400;28;20004;-21
2022/03/29 17:26:44;;;;;;;;;;;;;;;;;;4997848;28;19994;-23
2022/03/29 17:29:11;;;;;;;;;;;;;;;;;;4997519;28;19910;-22
2022/03/29 17:31:37;;;;;;;;;;;;;;;;;;4981037;28;19936;-24
2022/03/29 17:34:03;;;;;;;;;;;;;;;;;;4997483;28;19910;-24
2022/03/29 17:36:29;;;;;;;;;;;;;;;;;;4997964;28;19968;-26
2022/03/29 17:38:55;;;;;;;;;;;;;;;;;;4997675;28;19910;-22
2022/03/29 17:41:21;;;;;;;;;;;;;;;;;;4996723;28;19957;-23
2022/03/29 17:43:47;;;;;;;;;;;;;;;;;;4996603;28;19918;-21
2022/03/29 17:46:13;;;;;;;;;;;;;;;;;;4996691;28;20324;-21
2022/03/29 17:48:39;;;;;;;;;;;;;;;;;;4979374;28;19965;-23
2022/03/29 17:51:05;;;;;;;;;;;;;;;;;;4996666;28;19976;-22